Time;durP1;ratioP1;P1;durP2;ratioP2;P2;SDS_P1;SDS_P2;PMS_P1;PMS_P2;Temp;Humidity;BMP_temperature;BMP_pressure;BME280_temperature;BME280_humidity;BME280_pressure;Samples;Min_cycle;Max_cycle;Signal;HPM_P1;HPM_P2
2021/09/27 00:01:28;;;;;;;;;;;;;;;14.22;78.68;98444.45;1655973;84;22756;-85
2021/09/27 00:03:54;;;;;;;;;;;;;;;14.15;78.71;98440.66;1657107;84;26051;-86
2021/09/27 00:06:20;;;;;;;;;;;;;;;14.13;78.79;98439.47;1657373;84;24457;-86
2021/09/27 00:08:47;;;;;;;;;;;;;;;14.09;78.83;98442.01;1655515;85;20198;-84
2021/09/27 00:11:14;;;;;;;;;;;;;;;14.07;78.93;98440.48;1653932;84;24624;-88
2021/09/27 00:13:42;;;;;;;;;;;;;;;14.07;79.00;98440.48;1658100;85;21980;-87
2021/09/27 00:16:08;;;;;;;;;;;;;;;14.12;79.06;98437.83;1656219;84;26021;-86
2021/09/27 00:18:35;;;;;;;;;;;;;;;14.25;79.19;98437.13;1654185;84;24451;-86
2021/09/27 00:21:03;;;;;;;;;;;;;;;14.26;79.27;98434.01;1653237;85;20182;-87
2021/09/27 00:23:30;;;;;;;;;;;;;;;14.23;79.33;98436.44;1652621;84;24689;-87
2021/09/27 00:25:59;;;;;;;;;;;;;;;14.30;79.37;98434.09;1652007;85;21419;-84
2021/09/27 00:28:25;;;;;;;;;;;;;;;14.36;79.44;98424.84;1657102;84;26047;-86
2021/09/27 00:30:51;;;;;;;;;;;;;;;14.35;79.50;98421.38;1655038;84;24218;-87
2021/09/27 00:33:19;;;;;;;;;;;;;;;14.30;79.50;98432.78;1656425;84;20246;-87
2021/09/27 00:35:54;;;;;;;;;;;;;;;14.23;79.51;98429.02;1656784;85;25439;-86
2021/09/27 00:38:20;;;;;;;;;;;;;;;14.19;79.52;98426.27;1654602;85;21961;-87
2021/09/27 00:40:49;;;;;;;;;;;;;;;14.19;79.53;98426.27;1656317;85;26644;-85
2021/09/27 00:43:16;;;;;;;;;;;;;;;14.33;79.62;98421.16;1647648;85;25323;-86
2021/09/27 00:45:44;;;;;;;;;;;;;;;14.36;79.65;98420.41;1632686;86;20699;-86
2021/09/27 00:48:11;;;;;;;;;;;;;;;14.28;79.66;98426.83;1631442;86;24732;-85
2021/09/27 00:50:39;;;;;;;;;;;;;;;14.18;79.64;98424.63;1643227;86;21971;-84
2021/09/27 00:53:07;;;;;;;;;;;;;;;14.14;79.65;98424.03;1626326;86;26721;-83
2021/09/27 00:55:39;;;;;;;;;;;;;;;14.23;79.69;98421.95;1632289;86;25247;-86
2021/09/27 00:58:08;;;;;;;;;;;;;;;14.21;79.70;98416.45;1622978;86;20205;-87
2021/09/27 01:00:35;;;;;;;;;;;;;;;14.13;79.69;98417.09;1606939;87;24777;-88
2021/09/27 01:03:01;;;;;;;;;;;;;;;14.17;79.68;98416.37;1627415;86;22205;-88
2021/09/27 01:05:27;;;;;;;;;;;;;;;14.19;79.70;98420.53;1634289;86;26088;-88
2021/09/27 01:08:01;;;;;;;;;;;;;;;14.24;79.71;98418.34;1628636;86;24390;-87
2021/09/27 01:10:46;;;;;;;;;;;;;;;14.32;79.72;98414.23;1639859;86;20362;-85
2021/09/27 01:13:26;;;;;;;;;;;;;;;14.36;79.71;98404.61;1629995;86;24971;-86
2021/09/27 01:16:11;;;;;;;;;;;;;;;14.36;79.70;98403.30;1630400;86;22171;-84
2021/09/27 01:18:56;;;;;;;;;;;;;;;14.23;79.65;98398.75;1630670;86;26068;-86
2021/09/27 01:21:27;;;;;;;;;;;;;;;14.08;79.59;98400.02;1630114;86;25680;-88
2021/09/27 01:24:12;;;;;;;;;;;;;;;13.96;79.55;98406.34;1636423;86;20544;-83
2021/09/27 01:26:40;;;;;;;;;;;;;;;13.97;79.54;98407.98;1629819;86;24911;-85
2021/09/27 01:29:19;;;;;;;;;;;;;;;14.10;79.58;98405.53;1628714;86;22212;-83
2021/09/27 01:32:04;;;;;;;;;;;;;;;14.11;79.58;98403.25;1623827;86;25506;-85
2021/09/27 01:34:32;;;;;;;;;;;;;;;14.16;79.63;98398.43;1630298;86;25218;-85
2021/09/27 01:37:00;;;;;;;;;;;;;;;14.08;79.60;98402.17;1661375;85;20481;-86
2021/09/27 01:39:44;;;;;;;;;;;;;;;14.15;79.57;98402.50;1637952;86;24813;-87
2021/09/27 01:42:12;;;;;;;;;;;;;;;14.16;79.60;98394.96;1628726;86;21968;-85
2021/09/27 01:44:58;;;;;;;;;;;;;;;13.99;79.55;98402.13;1628163;86;25977;-86
2021/09/27 01:47:26;;;;;;;;;;;;;;;13.82;79.50;98400.43;1620954;86;24455;-84
2021/09/27 01:49:59;;;;;;;;;;;;;;;13.72;79.46;98400.84;1632488;86;20548;-88
2021/09/27 01:52:27;;;;;;;;;;;;;;;13.64;79.47;98396.69;1630828;86;24805;-85
2021/09/27 01:54:55;;;;;;;;;;;;;;;13.59;79.48;98402.81;1629162;86;22000;-85
2021/09/27 01:57:32;;;;;;;;;;;;;;;13.67;79.50;98400.87;1632599;86;26197;-83
2021/09/27 02:00:05;;;;;;;;;;;;;;;13.81;79.59;98397.44;1622796;86;24524;-88
2021/09/27 02:02:36;;;;;;;;;;;;;;;13.77;79.60;98395.20;1627133;86;20286;-88
2021/09/27 02:05:07;;;;;;;;;;;;;;;13.64;79.59;98394.53;1624040;86;25620;-88
2021/09/27 02:07:34;;;;;;;;;;;;;;;13.59;79.59;98389.66;1629763;86;21931;-88
2021/09/27 02:10:02;;;;;;;;;;;;;;;13.64;79.63;98384.02;1633380;86;26068;-88
2021/09/27 02:12:35;;;;;;;;;;;;;;;13.61;79.64;98389.55;1633985;86;24460;-86
2021/09/27 02:15:04;;;;;;;;;;;;;;;13.52;79.65;98386.38;1634202;86;20229;-88
2021/09/27 02:17:50;;;;;;;;;;;;;;;13.45;79.63;98382.57;1628049;86;24828;-88
2021/09/27 02:20:18;;;;;;;;;;;;;;;13.36;79.60;98378.92;1624556;86;22017;-84
2021/09/27 02:22:50;;;;;;;;;;;;;;;13.31;79.61;98391.09;1637607;86;26782;-88
2021/09/27 02:25:21;;;;;;;;;;;;;;;13.27;79.62;98396.25;1633625;86;25335;-84
2021/09/27 02:27:48;;;;;;;;;;;;;;;13.20;79.65;98399.02;1665434;85;20234;-87
2021/09/27 02:30:16;;;;;;;;;;;;;;;13.12;79.61;98392.72;1640484;86;25350;-87
2021/09/27 02:32:53;;;;;;;;;;;;;;;13.04;79.61;98388.04;1629116;86;22753;-83
2021/09/27 02:35:23;;;;;;;;;;;;;;;12.97;79.60;98393.45;1632529;86;27026;-84
2021/09/27 02:37:54;;;;;;;;;;;;;;;12.89;79.61;98390.12;1629423;86;25190;-86
2021/09/27 02:40:40;;;;;;;;;;;;;;;12.86;79.62;98384.28;1629516;86;20227;-88
2021/09/27 02:43:08;;;;;;;;;;;;;;;12.86;79.67;98384.28;1637690;86;24834;-88
2021/09/27 02:45:35;;;;;;;;;;;;;;;12.88;79.73;98381.88;1640864;86;22053;-88
2021/09/27 02:48:09;;;;;;;;;;;;;;;12.91;79.81;98384.75;1629701;86;26066;-87
2021/09/27 02:50:31;;;;;;;;;;;;;;;12.87;79.86;98380.20;1626014;86;24726;-87
2021/09/27 02:52:57;;;;;;;;;;;;;;;12.83;79.91;98377.95;1640174;86;20279;-84
2021/09/27 02:55:31;;;;;;;;;;;;;;;12.78;79.95;98374.86;1633631;86;20220;-84
2021/09/27 02:57:59;;;;;;;;;;;;;;;12.71;80.03;98378.44;1612998;86;21991;-88
2021/09/27 03:00:46;;;;;;;;;;;;;;;12.69;80.11;98375.13;1618140;86;26047;-88
2021/09/27 03:03:16;;;;;;;;;;;;;;;12.68;80.24;98374.76;1622633;86;24380;-84
2021/09/27 03:05:56;;;;;;;;;;;;;;;12.64;80.37;98369.41;1626093;86;20502;-85
2021/09/27 03:08:27;;;;;;;;;;;;;;;12.60;80.49;98369.27;1632638;86;25312;-84
2021/09/27 03:11:01;;;;;;;;;;;;;;;12.61;80.63;98371.41;1624562;86;22846;-88
2021/09/27 03:13:41;;;;;;;;;;;;;;;12.66;80.79;98377.13;1636905;86;25959;-84
2021/09/27 03:16:10;;;;;;;;;;;;;;;12.70;80.98;98373.33;1637515;86;24503;-87
2021/09/27 03:18:41;;;;;;;;;;;;;;;12.72;81.16;98373.55;1638472;86;20207;-88
2021/09/27 03:21:09;;;;;;;;;;;;;;;12.72;81.32;98371.40;1622987;86;24756;-88
2021/09/27 03:23:53;;;;;;;;;;;;;;;12.69;81.47;98378.22;1622893;86;21806;-84
2021/09/27 03:26:27;;;;;;;;;;;;;;;12.67;81.61;98380.13;1647540;86;26352;-88
2021/09/27 03:29:04;;;;;;;;;;;;;;;12.65;81.75;98374.17;1631510;86;25080;-86
2021/09/27 03:31:35;;;;;;;;;;;;;;;12.60;81.89;98382.39;1633017;86;20229;-88
2021/09/27 03:34:15;;;;;;;;;;;;;;;12.56;82.04;98375.72;1621785;86;24939;-84
2021/09/27 03:36:57;;;;;;;;;;;;;;;12.54;82.15;98369.78;1639049;86;21812;-85
2021/09/27 03:39:29;;;;;;;;;;;;;;;12.51;82.29;98364.75;1629984;86;25978;-87
2021/09/27 03:42:09;;;;;;;;;;;;;;;12.51;82.43;98370.00;1632792;86;24005;-87
2021/09/27 03:44:47;;;;;;;;;;;;;;;12.53;82.59;98374.66;1642371;85;20197;-87
2021/09/27 03:47:16;;;;;;;;;;;;;;;12.62;82.75;98372.62;1634927;86;24886;-86
2021/09/27 03:49:44;;;;;;;;;;;;;;;12.69;82.92;98379.53;1627794;86;21990;-85
2021/09/27 03:52:17;;;;;;;;;;;;;;;12.72;83.06;98377.48;1622206;86;26065;-83
2021/09/27 03:54:50;;;;;;;;;;;;;;;12.72;83.15;98378.80;1631421;86;24350;-83
2021/09/27 03:57:18;;;;;;;;;;;;;;;12.77;83.29;98376.64;1615158;86;20225;-87
2021/09/27 04:00:02;;;;;;;;;;;;;;;12.88;83.43;98381.04;1635739;86;25562;-83
2021/09/27 04:02:42;;;;;;;;;;;;;;;13.00;83.55;98381.38;1587087;89;22063;-87
2021/09/27 04:05:27;;;;;;;;;;;;;;;13.06;83.64;98373.48;1627718;87;25989;-83
2021/09/27 04:07:58;;;;;;;;;;;;;;;12.99;83.74;98376.59;1612410;88;24536;-83
2021/09/27 04:10:26;;;;;;;;;;;;;;;13.02;83.81;98383.89;1627355;86;20354;-83
2021/09/27 04:12:53;;;;;;;;;;;;;;;13.08;83.89;98379.45;1628419;86;25652;-88
2021/09/27 04:15:24;;;;;;;;;;;;;;;13.11;83.95;98381.34;1634991;86;22003;-88
2021/09/27 04:17:52;;;;;;;;;;;;;;;13.08;84.00;98383.39;1631112;86;26255;-88
2021/09/27 04:20:19;;;;;;;;;;;;;;;13.02;84.06;98379.95;1627443;86;24630;-89
2021/09/27 04:22:47;;;;;;;;;;;;;;;12.98;84.10;98379.37;1633617;86;20233;-88
2021/09/27 04:25:24;;;;;;;;;;;;;;;12.92;84.14;98378.55;1612311;86;24437;-86
2021/09/27 04:27:55;;;;;;;;;;;;;;;12.90;84.17;98378.66;1637331;86;21963;-84
2021/09/27 04:30:23;;;;;;;;;;;;;;;12.87;84.24;98384.14;1623741;86;27031;-86
2021/09/27 04:32:53;;;;;;;;;;;;;;;12.89;84.29;98384.86;1657125;85;24620;-84
2021/09/27 04:35:21;;;;;;;;;;;;;;;12.91;84.39;98390.00;1631596;86;20314;-87
2021/09/27 04:37:48;;;;;;;;;;;;;;;12.91;84.44;98385.59;1632840;86;25038;-83
2021/09/27 04:40:16;;;;;;;;;;;;;;;12.91;84.53;98389.53;1638684;86;22059;-84
2021/09/27 04:42:56;;;;;;;;;;;;;;;12.99;84.61;98396.77;1609317;86;26038;-83
2021/09/27 04:45:24;;;;;;;;;;;;;;;13.10;84.70;98402.48;1630819;85;24687;-86
2021/09/27 04:48:02;;;;;;;;;;;;;;;13.27;84.81;98408.56;1591287;86;20532;-87
2021/09/27 04:50:33;;;;;;;;;;;;;;;13.43;84.89;98414.23;1634660;86;24907;-87
2021/09/27 04:53:18;;;;;;;;;;;;;;;13.60;84.95;98409.74;1635607;86;21984;-87
2021/09/27 04:55:50;;;;;;;;;;;;;;;13.71;85.05;98416.27;1625876;86;25699;-87
2021/09/27 04:58:24;;;;;;;;;;;;;;;13.75;85.06;98417.67;1625206;86;24673;-87
2021/09/27 05:01:03;;;;;;;;;;;;;;;13.77;85.10;98413.13;1628160;86;20217;-84
2021/09/27 05:03:48;;;;;;;;;;;;;;;13.73;85.08;98416.98;1629353;86;25514;-84
2021/09/27 05:06:21;;;;;;;;;;;;;;;13.72;85.08;98411.37;1628297;86;22110;-87
2021/09/27 05:08:58;;;;;;;;;;;;;;;13.68;85.09;98411.27;1638515;86;26592;-88
2021/09/27 05:11:30;;;;;;;;;;;;;;;13.71;85.08;98414.95;1633246;86;26477;-88
2021/09/27 05:14:07;;;;;;;;;;;;;;;13.71;85.10;98403.59;1634926;86;20295;-87
2021/09/27 05:16:50;;;;;;;;;;;;;;;13.76;85.11;98410.63;1634460;86;24906;-86
2021/09/27 05:19:35;;;;;;;;;;;;;;;13.79;85.11;98418.27;1624287;86;22091;-86
2021/09/27 05:22:11;;;;;;;;;;;;;;;13.83;85.15;98417.89;1632014;86;25980;-88
2021/09/27 05:24:48;;;;;;;;;;;;;;;13.79;85.15;98414.33;1652296;86;25352;-84
2021/09/27 05:27:16;;;;;;;;;;;;;;;13.69;85.14;98412.11;1628415;86;20181;-88
2021/09/27 05:30:05;;;;;;;;;;;;;;;13.64;85.14;98409.84;1636905;85;24774;-88
2021/09/27 05:32:36;;;;;;;;;;;;;;;13.65;85.13;98407.56;1626129;86;22851;-86
2021/09/27 05:35:10;;;;;;;;;;;;;;;13.64;85.14;98409.00;1617716;86;26801;-84
2021/09/27 05:37:41;;;;;;;;;;;;;;;13.59;85.17;98405.44;1631234;86;25256;-84
2021/09/27 05:40:14;;;;;;;;;;;;;;;13.61;85.21;98408.79;1632329;86;20250;-85
2021/09/27 05:42:42;;;;;;;;;;;;;;;13.65;85.27;98406.25;1629124;86;25531;-84
2021/09/27 05:45:12;;;;;;;;;;;;;;;13.68;85.33;98407.81;1632731;85;22606;-88
2021/09/27 05:47:44;;;;;;;;;;;;;;;13.63;85.38;98408.20;1639729;85;26888;-86
2021/09/27 05:50:28;;;;;;;;;;;;;;;13.61;85.44;98404.84;1639081;85;24470;-88
2021/09/27 05:53:01;;;;;;;;;;;;;;;13.63;85.51;98399.47;1642712;85;20260;-88
2021/09/27 05:55:35;;;;;;;;;;;;;;;13.67;85.58;98401.71;1639604;85;24939;-86
2021/09/27 05:58:06;;;;;;;;;;;;;;;13.66;85.65;98398.72;1637829;87;22327;-86
2021/09/27 06:00:49;;;;;;;;;;;;;;;13.64;85.71;98399.31;1640556;85;26062;-86
2021/09/27 06:03:32;;;;;;;;;;;;;;;13.64;85.75;98401.11;1639452;87;25340;-86
2021/09/27 06:06:06;;;;;;;;;;;;;;;13.66;85.87;98404.46;1637386;85;20254;-86
2021/09/27 06:08:34;;;;;;;;;;;;;;;13.71;85.93;98403.59;1636915;85;24929;-87
2021/09/27 06:11:02;;;;;;;;;;;;;;;13.79;86.05;98403.33;1640425;87;21992;-87
2021/09/27 06:13:29;;;;;;;;;;;;;;;13.85;86.12;98401.98;1636015;85;26173;-86
2021/09/27 06:16:01;;;;;;;;;;;;;;;13.89;86.22;98404.70;1637180;87;24554;-88
2021/09/27 06:18:35;;;;;;;;;;;;;;;13.94;86.28;98402.52;1641949;85;20246;-88
2021/09/27 06:21:18;;;;;;;;;;;;;;;13.99;86.35;98404.76;1638718;87;25447;-88
2021/09/27 06:24:04;;;;;;;;;;;;;;;13.95;86.41;98391.03;1638851;86;21963;-85
2021/09/27 06:26:32;;;;;;;;;;;;;;;14.07;86.47;98395.75;1638784;87;26239;-85
2021/09/27 06:29:02;;;;;;;;;;;;;;;14.10;86.54;98390.22;1640065;85;23905;-84
2021/09/27 06:31:33;;;;;;;;;;;;;;;14.09;86.58;98394.64;1642032;87;22079;-84
2021/09/27 06:34:14;;;;;;;;;;;;;;;14.08;86.62;98398.70;1639052;86;24997;-85
2021/09/27 06:36:42;;;;;;;;;;;;;;;14.06;86.65;98400.17;1638141;87;22099;-87
2021/09/27 06:39:11;;;;;;;;;;;;;;;14.06;86.70;98395.39;1641311;85;25974;-85
2021/09/27 06:41:39;;;;;;;;;;;;;;;14.10;86.76;98395.00;1637754;87;24455;-85
2021/09/27 06:44:05;;;;;;;;;;;;;;;14.19;86.83;98389.42;1644491;87;20414;-87
2021/09/27 06:46:32;;;;;;;;;;;;;;;14.23;86.88;98387.73;1642559;85;20362;-88
2021/09/27 06:48:58;;;;;;;;;;;;;;;14.27;86.95;98396.67;1639881;85;22932;-88
2021/09/27 06:51:24;;;;;;;;;;;;;;;14.20;86.98;98389.78;1640867;85;25978;-85
2021/09/27 06:53:50;;;;;;;;;;;;;;;14.11;87.00;98395.84;1643563;86;20781;-85
2021/09/27 06:56:16;;;;;;;;;;;;;;;14.00;86.99;98390.64;1658904;86;20321;-85
2021/09/27 06:58:42;;;;;;;;;;;;;;;13.95;87.01;98394.14;1640022;85;24836;-84
2021/09/27 07:01:08;;;;;;;;;;;;;;;13.95;87.03;98399.41;1644281;85;20517;-84
2021/09/27 07:03:35;;;;;;;;;;;;;;;13.97;87.08;98402.72;1642212;86;20923;-84
2021/09/27 07:06:01;;;;;;;;;;;;;;;14.02;87.15;98401.89;1642655;87;24132;-87
2021/09/27 07:08:27;;;;;;;;;;;;;;;14.08;87.23;98398.70;1641554;87;20294;-87
2021/09/27 07:10:54;;;;;;;;;;;;;;;14.20;87.34;98393.25;1639517;87;24408;-87
2021/09/27 07:13:20;;;;;;;;;;;;;;;14.24;87.45;98391.17;1638921;86;20337;-88
2021/09/27 07:15:49;;;;;;;;;;;;;;;14.22;87.54;98391.81;1636952;87;26796;-87
2021/09/27 07:18:24;;;;;;;;;;;;;;;14.14;87.58;98388.50;1642914;87;24462;-88
2021/09/27 07:20:50;;;;;;;;;;;;;;;14.08;87.61;98400.02;1640164;85;20155;-86
2021/09/27 07:23:16;;;;;;;;;;;;;;;14.02;87.66;98397.42;1646176;85;24764;-85
2021/09/27 07:25:42;;;;;;;;;;;;;;;14.04;87.73;98403.89;1641096;87;20911;-87
2021/09/27 07:28:08;;;;;;;;;;;;;;;14.09;87.79;98406.96;1642161;85;26633;-88
2021/09/27 07:30:35;;;;;;;;;;;;;;;14.09;87.88;98403.02;1641595;85;20238;-87
2021/09/27 07:33:01;;;;;;;;;;;;;;;14.05;87.95;98406.88;1640185;87;20238;-87
2021/09/27 07:35:29;;;;;;;;;;;;;;;13.99;88.00;98401.65;1645121;85;37882;-87
2021/09/27 07:37:55;;;;;;;;;;;;;;;13.95;88.05;98403.36;1641023;85;21932;-87
2021/09/27 07:40:22;;;;;;;;;;;;;;;13.94;88.14;98401.20;1642772;86;26978;-87
2021/09/27 07:42:48;;;;;;;;;;;;;;;13.94;88.22;98399.89;1643147;87;24514;-84
2021/09/27 07:45:16;;;;;;;;;;;;;;;14.01;88.32;98393.63;1642473;85;20171;-85
2021/09/27 07:47:42;;;;;;;;;;;;;;;14.10;88.47;98391.53;1643770;85;24772;-85
2021/09/27 07:50:08;;;;;;;;;;;;;;;14.13;88.57;98401.30;1645845;85;20237;-87
2021/09/27 07:52:35;;;;;;;;;;;;;;;14.17;88.68;98393.52;1629946;86;27026;-88
2021/09/27 07:55:01;;;;;;;;;;;;;;;14.20;88.80;98393.25;1638915;87;24421;-84
2021/09/27 07:57:27;;;;;;;;;;;;;;;14.28;88.91;98395.72;1643101;87;20309;-84
2021/09/27 07:59:55;;;;;;;;;;;;;;;14.32;88.99;98399.27;1644397;85;20761;-87
2021/09/27 08:02:21;;;;;;;;;;;;;;;14.34;89.10;98392.56;1640295;85;22024;-88
2021/09/27 08:04:47;;;;;;;;;;;;;;;14.37;89.19;98397.58;1638858;87;21059;-88
2021/09/27 08:07:15;;;;;;;;;;;;;;;14.45;89.25;98399.09;1640857;85;24393;-84
2021/09/27 08:09:41;;;;;;;;;;;;;;;14.54;89.36;98400.44;1641738;85;20222;-86
2021/09/27 08:12:07;;;;;;;;;;;;;;;14.64;89.43;98403.10;1639593;85;24763;-88
2021/09/27 08:14:33;;;;;;;;;;;;;;;14.74;89.52;98402.65;1641496;85;22741;-88
2021/09/27 08:16:59;;;;;;;;;;;;;;;14.83;89.60;98396.59;1644478;85;20973;-88
2021/09/27 08:19:25;;;;;;;;;;;;;;;14.95;89.66;98407.34;1639633;87;25110;-86
2021/09/27 08:21:51;;;;;;;;;;;;;;;15.00;89.72;98404.34;1642852;87;20875;-84
2021/09/27 08:24:18;;;;;;;;;;;;;;;14.98;89.75;98404.94;1642903;85;24754;-87
2021/09/27 08:26:44;;;;;;;;;;;;;;;14.95;89.75;98402.08;1641873;86;21962;-87
2021/09/27 08:29:10;;;;;;;;;;;;;;;14.93;89.73;98399.25;1642883;87;21108;-85
2021/09/27 08:31:36;;;;;;;;;;;;;;;14.92;89.74;98400.20;1645257;85;24547;-85
2021/09/27 08:34:03;;;;;;;;;;;;;;;14.91;89.74;98402.01;1646151;85;20501;-87
2021/09/27 08:36:29;;;;;;;;;;;;;;;14.93;89.77;98406.67;1645905;85;24860;-83
2021/09/27 08:38:55;;;;;;;;;;;;;;;14.95;89.77;98409.15;1646117;85;23002;-87
2021/09/27 08:41:23;;;;;;;;;;;;;;;14.99;89.79;98415.36;1638041;87;21032;-87
2021/09/27 08:43:57;;;;;;;;;;;;;;;15.09;89.84;98415.37;1638650;86;24603;-87
2021/09/27 08:46:31;;;;;;;;;;;;;;;15.16;89.91;98423.09;1647152;85;20273;-88
2021/09/27 08:49:01;;;;;;;;;;;;;;;15.14;89.92;98418.91;1653671;85;24749;-88
2021/09/27 08:51:29;;;;;;;;;;;;;;;15.12;89.93;98418.20;1650013;85;22633;-89
2021/09/27 08:53:55;;;;;;;;;;;;;;;15.12;89.92;98419.52;1649830;85;25987;-84
2021/09/27 08:56:23;;;;;;;;;;;;;;;15.18;89.95;98422.94;1653760;85;20253;-88
2021/09/27 08:58:50;;;;;;;;;;;;;;;15.30;90.01;98425.33;1654744;85;20231;-88
2021/09/27 09:01:18;;;;;;;;;;;;;;;15.44;90.07;98423.59;1650744;85;24601;-88
2021/09/27 09:03:46;;;;;;;;;;;;;;;15.50;90.13;98420.41;1651819;85;22728;-88
2021/09/27 09:06:17;;;;;;;;;;;;;;;15.47;90.16;98417.22;1653723;85;26037;-88
2021/09/27 09:08:44;;;;;;;;;;;;;;;15.47;90.14;98410.14;1651774;86;24435;-87
2021/09/27 09:11:15;;;;;;;;;;;;;;;15.52;90.14;98412.39;1654959;85;20398;-85
2021/09/27 09:13:52;;;;;;;;;;;;;;;15.52;90.15;98404.97;1650742;85;25781;-88
2021/09/27 09:16:18;;;;;;;;;;;;;;;15.53;90.15;98400.87;1652024;85;22100;-87
2021/09/27 09:18:49;;;;;;;;;;;;;;;15.62;90.18;98398.72;1652049;85;26051;-88
2021/09/27 09:21:19;;;;;;;;;;;;;;;15.67;90.21;98400.93;1653003;86;25265;-88
2021/09/27 09:23:48;;;;;;;;;;;;;;;15.71;90.23;98396.55;1638576;86;20232;-86
2021/09/27 09:26:17;;;;;;;;;;;;;;;15.73;90.24;98400.37;1631461;85;24785;-85
2021/09/27 09:28:44;;;;;;;;;;;;;;;15.72;90.24;98394.75;1652631;85;22039;-88
2021/09/27 09:31:15;;;;;;;;;;;;;;;15.71;90.22;98393.11;1653364;85;26130;-88
2021/09/27 09:33:43;;;;;;;;;;;;;;;15.74;90.23;98400.73;1648718;86;25352;-88
2021/09/27 09:36:10;;;;;;;;;;;;;;;15.80;90.24;98400.17;1654876;85;20262;-83
2021/09/27 09:38:38;;;;;;;;;;;;;;;15.83;90.29;98404.67;1650565;85;24831;-83
2021/09/27 09:41:05;;;;;;;;;;;;;;;15.93;90.30;98407.29;1653654;85;21962;-84
2021/09/27 09:43:32;;;;;;;;;;;;;;;16.04;90.34;98404.48;1654140;85;25987;-83
2021/09/27 09:46:15;;;;;;;;;;;;;;;16.11;90.38;98406.08;1650323;86;24392;-88
2021/09/27 09:48:43;;;;;;;;;;;;;;;16.11;90.39;98402.95;1629552;86;20331;-89
2021/09/27 09:51:20;;;;;;;;;;;;;;;16.09;90.34;98400.94;1619678;86;25396;-88
2021/09/27 09:53:48;;;;;;;;;;;;;;;16.06;90.28;98399.91;1631478;86;22001;-88
2021/09/27 09:56:16;;;;;;;;;;;;;;;16.10;90.27;98396.49;1637390;86;25971;-85
2021/09/27 09:58:43;;;;;;;;;;;;;;;16.19;90.26;98399.13;1612448;86;24218;-88
2021/09/27 10:01:29;;;;;;;;;;;;;;;16.23;90.27;98388.62;1633212;86;20225;-88
2021/09/27 10:03:57;;;;;;;;;;;;;;;16.24;90.28;98385.01;1634025;86;25674;-88
2021/09/27 10:06:24;;;;;;;;;;;;;;;16.28;90.27;98381.58;1622814;86;21963;-88
2021/09/27 10:08:55;;;;;;;;;;;;;;;16.41;90.27;98378.63;1633401;86;26067;-87
2021/09/27 10:11:28;;;;;;;;;;;;;;;16.46;90.32;98381.66;1638069;86;24512;-89
2021/09/27 10:13:55;;;;;;;;;;;;;;;16.53;90.35;98382.75;1626332;86;20245;-84
2021/09/27 10:16:29;;;;;;;;;;;;;;;16.56;90.36;98378.48;1617214;86;26901;-83
2021/09/27 10:18:57;;;;;;;;;;;;;;;16.59;90.38;98379.53;1636503;86;21964;-83
2021/09/27 10:21:31;;;;;;;;;;;;;;;16.62;90.35;98380.58;1620346;86;26102;-87
2021/09/27 10:23:59;;;;;;;;;;;;;;;16.62;90.34;98385.37;1637142;86;24416;-89
2021/09/27 10:26:27;;;;;;;;;;;;;;;16.65;90.33;98382.43;1636143;86;20259;-88
2021/09/27 10:28:55;;;;;;;;;;;;;;;16.71;90.31;98391.58;1618816;86;24763;-84
2021/09/27 10:34:10;;;;;;;;;;;;;;;16.80;90.28;98385.41;1638932;86;26102;-81
2021/09/27 10:36:42;;;;;;;;;;;;;;;16.93;90.30;98377.14;1637909;86;24427;-81
2021/09/27 10:39:09;;;;;;;;;;;;;;;17.04;90.31;98383.54;1638065;86;20278;-86
2021/09/27 10:41:40;;;;;;;;;;;;;;;17.15;90.34;98384.65;1637720;86;24779;-86
2021/09/27 10:44:08;;;;;;;;;;;;;;;17.26;90.34;98382.28;1638596;86;22101;-83
2021/09/27 10:46:35;;;;;;;;;;;;;;;17.43;90.39;98379.65;1638430;86;26172;-86
2021/09/27 10:49:03;;;;;;;;;;;;;;;17.54;90.43;98385.20;1638150;86;25378;-87
2021/09/27 10:51:34;;;;;;;;;;;;;;;17.65;90.44;98382.34;1637766;86;20164;-89
2021/09/27 10:54:06;;;;;;;;;;;;;;;17.75;90.43;98381.77;1637866;87;24830;-83
2021/09/27 10:56:37;;;;;;;;;;;;;;;17.81;90.38;98373.21;1638682;86;22010;-84
2021/09/27 10:59:09;;;;;;;;;;;;;;;17.81;90.30;98370.56;1636551;86;25809;-89
2021/09/27 11:01:37;;;;;;;;;;;;;;;17.80;90.21;98372.88;1637887;86;25306;-84
2021/09/27 11:04:06;;;;;;;;;;;;;;;17.80;90.11;98371.55;1638007;86;20204;-88
2021/09/27 11:06:52;;;;;;;;;;;;;;;17.79;89.98;98371.69;1638547;86;24969;-85
2021/09/27 11:09:28;;;;;;;;;;;;;;;17.73;89.85;98366.52;1638978;86;22070;-85
2021/09/27 11:12:09;;;;;;;;;;;;;;;17.66;89.67;98363.34;1637408;86;26131;-85
2021/09/27 11:14:47;;;;;;;;;;;;;;;17.66;89.53;98365.98;1638387;86;24512;-88
2021/09/27 11:17:15;;;;;;;;;;;;;;;17.68;89.47;98366.15;1609905;86;20319;-88
2021/09/27 11:19:43;;;;;;;;;;;;;;;17.79;89.42;98363.75;1637491;86;24857;-85
2021/09/27 11:22:17;;;;;;;;;;;;;;;17.85;89.41;98365.30;1639407;86;22556;-85
2021/09/27 11:24:45;;;;;;;;;;;;;;;17.87;89.38;98358.53;1610465;87;26085;-89
2021/09/27 11:27:19;;;;;;;;;;;;;;;17.87;89.29;98353.23;1637935;86;25157;-86
2021/09/27 11:29:47;;;;;;;;;;;;;;;17.85;89.18;98350.73;1638356;86;20232;-85
2021/09/27 11:32:20;;;;;;;;;;;;;;;17.85;89.10;98353.87;1636099;86;24849;-85
2021/09/27 11:34:57;;;;;;;;;;;;;;;17.83;88.99;98350.56;1630502;86;22033;-89
2021/09/27 11:37:25;;;;;;;;;;;;;;;17.79;88.90;98353.99;1631072;86;26729;-84
2021/09/27 11:39:53;;;;;;;;;;;;;;;17.75;88.77;98357.94;1631545;86;25500;-85
2021/09/27 11:42:24;;;;;;;;;;;;;;;17.75;88.67;98355.30;1619574;86;20222;-83
2021/09/27 11:45:04;;;;;;;;;;;;;;;17.75;88.62;98348.67;1615865;87;24768;-84
2021/09/27 11:47:44;;;;;;;;;;;;;;;17.79;88.57;98347.37;1626325;87;23027;-88
2021/09/27 11:50:16;;;;;;;;;;;;;;;17.82;88.54;98347.08;1618675;87;25989;-84
2021/09/27 11:52:44;;;;;;;;;;;;;;;17.93;88.51;98342.03;1626106;86;24828;-88
2021/09/27 11:55:12;;;;;;;;;;;;;;;17.97;88.51;98344.69;1622103;87;20339;-88
2021/09/27 11:57:40;;;;;;;;;;;;;;;18.03;88.49;98344.56;1623359;87;24838;-88
2021/09/27 12:00:08;;;;;;;;;;;;;;;18.06;88.45;98337.62;1620179;87;22153;-88
2021/09/27 12:02:53;;;;;;;;;;;;;;;18.08;88.41;98338.30;1618921;87;26132;-89
2021/09/27 12:05:37;;;;;;;;;;;;;;;18.09;88.38;98342.13;1623709;86;24502;-88
2021/09/27 12:08:22;;;;;;;;;;;;;;;18.10;88.29;98344.28;1600828;87;20287;-87
2021/09/27 12:10:50;;;;;;;;;;;;;;;18.10;88.22;98342.96;1604341;87;24808;-87
2021/09/27 12:13:29;;;;;;;;;;;;;;;18.08;88.10;98342.27;1627397;87;22174;-84
2021/09/27 12:15:57;;;;;;;;;;;;;;;18.10;88.05;98342.47;1593800;87;25811;-87
2021/09/27 12:18:34;;;;;;;;;;;;;;;18.12;87.98;98335.67;1615786;87;24415;-83
2021/09/27 12:21:03;;;;;;;;;;;;;;;18.12;87.91;98335.67;1631874;86;20237;-88
2021/09/27 12:23:31;;;;;;;;;;;;;;;18.10;87.83;98332.37;1632275;87;24914;-88
2021/09/27 12:25:57;;;;;;;;;;;;;;;18.13;87.72;98329.39;1629960;86;22685;-88
2021/09/27 12:28:31;;;;;;;;;;;;;;;18.18;87.67;98330.58;1631195;86;20966;-87
2021/09/27 12:30:58;;;;;;;;;;;;;;;18.20;87.64;98329.94;1630867;86;24528;-83
2021/09/27 12:33:27;;;;;;;;;;;;;;;18.20;87.53;98328.62;1629301;87;20232;-88
2021/09/27 12:36:04;;;;;;;;;;;;;;;18.20;87.47;98322.00;1625799;86;25501;-88
2021/09/27 12:38:31;;;;;;;;;;;;;;;18.22;87.43;98321.84;1624822;86;21998;-83
2021/09/27 12:40:58;;;;;;;;;;;;;;;18.25;87.37;98322.84;1617801;87;26088;-88
2021/09/27 12:43:28;;;;;;;;;;;;;;;18.26;87.33;98321.37;1622408;87;24449;-83
2021/09/27 12:45:56;;;;;;;;;;;;;;;18.25;87.26;98325.00;1622732;87;20260;-87
2021/09/27 12:48:27;;;;;;;;;;;;;;;18.23;87.14;98320.83;1607803;87;24777;-87
2021/09/27 12:50:55;;;;;;;;;;;;;;;18.23;87.10;98317.69;1616863;87;22103;-88
2021/09/27 12:53:22;;;;;;;;;;;;;;;18.24;87.01;98319.85;1608645;87;26069;-82
2021/09/27 12:55:57;;;;;;;;;;;;;;;18.24;86.94;98317.20;1610845;87;24400;-82
2021/09/27 12:58:26;;;;;;;;;;;;;;;18.22;86.85;98311.25;1647206;86;20197;-84
2021/09/27 13:00:52;;;;;;;;;;;;;;;18.23;86.79;98311.07;1612470;87;24826;-88
2021/09/27 13:03:21;;;;;;;;;;;;;;;18.24;86.73;98314.55;1617600;87;22646;-87
2021/09/27 13:05:52;;;;;;;;;;;;;;;18.25;86.67;98309.10;1622735;87;26739;-87
2021/09/27 13:08:22;;;;;;;;;;;;;;;18.30;86.67;98303.33;1618178;87;24335;-88
2021/09/27 13:10:50;;;;;;;;;;;;;;;18.37;86.66;98303.87;1618408;87;20389;-89